Empire — PD5101 — position and weather

sailwx.info

Track history (hours):
 
Tides and Currents Weather Stations Pressure Air Temp Water Temp Dewpoint Dewpoint Depression Visibility Wind Speed Wind Dir Waves Ship Positions

Empire

Last reported at 2015-May-29 13:33 UTC. Time now 2015-May-29 14:22 UTC.
Position N 51°53' E 004°24'.

Length 183 m; draft 3 m.

Type: Ship. MMSI: 244670090.

Date/timePositionNaut miles runAvg speedWind from/ knotsBaromVisibWave heightAir tempDewpointWater temp
2015-May-29 13:33N 51°53' E 004°24'0 0.0
2015-May-29 12:33N 51°53' E 004°24'0 0.5
2015-May-29 11:33N 51°53' E 004°24'7 7.1
2015-May-29 10:33N 51°56' E 004°13'6 6.1
2015-May-29 09:33N 51°58' E 004°04'1 0.9
2015-May-29 08:33N 51°58' E 004°03'0 0.0
2015-May-29 07:33N 51°58' E 004°03'1 0.5
2015-May-29 06:33N 51°59' E 004°02'1 1.0
2015-May-29 05:33N 51°58' E 004°03'2 1.6
2015-May-29 04:33N 51°57' E 004°02'1 1.0
2015-May-29 03:33N 51°57' E 004°04'0 0.0
2015-May-29 02:33N 51°57' E 004°04'0 0.0
2015-May-29 01:33N 51°57' E 004°04'0 0.0
2015-May-29 00:33N 51°57' E 004°04'0 0.0
2015-May-28 23:33N 51°57' E 004°04'1 1.1
2015-May-28 22:33N 51°57' E 004°02'0 0.0
2015-May-28 21:33N 51°57' E 004°02'0 0.4
2015-May-28 20:33N 51°57' E 004°03'0 0.0
2015-May-28 19:33N 51°57' E 004°03'0 0.0
2015-May-28 18:33N 51°57' E 004°03'0 0.0
2015-May-28 17:33N 51°57' E 004°03'0 0.0
2015-May-28 16:33N 51°57' E 004°03'1 1.1
2015-May-28 15:33N 51°57' E 004°05'0 0.0
2015-May-28 14:33N 51°57' E 004°05'3 3.4
2015-May-28 13:33N 51°56' E 004°09'8 7.6
2015-May-28 12:33N 51°52' E 004°20'8 8.1
2015-May-28 11:34N 51°50' E 004°33'4 4.2
2015-May-28 10:33N 51°48' E 004°39'7 6.9
2015-May-28 09:33N 51°49' E 004°50'1310.3
2015-May-28 08:16N 51°49' E 005°11'7 9.5
2015-May-28 07:33N 51°49' E 005°22'11 9.1
2015-May-28 06:21N 51°54' E 005°38'810.6
2015-May-28 05:33N 51°51' E 005°51'8 8.0
2015-May-28 04:31N 51°52' E 006°05'7 1.0
2015-May-27 21:30N 51°49' E 006°16'20 9.5
2015-May-27 19:21N 51°34' E 006°37'16 7.5
2015-May-27 17:16N 51°19' E 006°44'5 7.3
2015-May-27 16:33N 51°14' E 006°44'19 8.3
2015-May-27 14:18N 50°58' E 006°59'5 5.8
2015-May-27 13:31N 50°54' E 007°03'105 7.5
2015-May-26 23:33N 49°25' E 008°30'9 8.6
2015-May-26 22:34N 49°17' E 008°27'1010.4
2015-May-26 21:34N 49°07' E 008°22'4 4.4
2015-May-26 20:34N 49°03' E 008°18'0 0.0
2015-May-26 19:34N 49°03' E 008°18'0 0.0
2015-May-26 18:34N 49°03' E 008°18'0 0.0
2015-May-26 17:33N 49°03' E 008°18'2 2.4
2015-May-26 16:34N 49°01' E 008°18'1 0.8
2015-May-26 15:34N 49°01' E 008°19'1 1.2
2015-May-26 14:33N 49°02' E 008°18'2 1.6
2015-May-26 13:34N 49°03' E 008°18'0 0.0
2015-May-26 12:34N 49°03' E 008°18'0 0.0
2015-May-26 11:34N 49°03' E 008°18'0 0.0
2015-May-26 10:34N 49°03' E 008°18'0 0.1
2015-May-26 09:34N 49°03' E 008°18'0 0.0
2015-May-26 08:34N 49°03' E 008°18'2 2.1
2015-May-26 07:34N 49°05' E 008°20'4 4.4
2015-May-26 06:34N 49°09' E 008°22'5 5.2
2015-May-26 05:34N 49°14' E 008°23'5 5.4
2015-May-26 04:33N 49°18' E 008°29'4 4.4
2015-May-26 03:34N 49°22' E 008°30'6 4.7
2015-May-26 02:22N 49°27' E 008°27'18 2.2
2015-May-25 18:17N 49°45' E 008°28'85 3.8
2015-May-24 20:14N 50°49' E 007°02'2 3.2
2015-May-24 19:31N 50°51' E 006°60'3 2.8
2015-May-24 18:31N 50°54' E 007°01'4 4.1
2015-May-24 17:33N 50°57' E 006°58'9 4.0
2015-May-24 15:17N 51°05' E 006°51'3 3.6
2015-May-24 14:33N 51°08' E 006°51'2 2.4
2015-May-24 13:33N 51°09' E 006°48'4 3.8
2015-May-24 12:33N 51°12' E 006°44'3 3.0
2015-May-24 11:33N 51°15' E 006°46'4 3.7
2015-May-24 10:26N 51°19' E 006°44'4 4.6
2015-May-24 09:32N 51°22' E 006°39'12 3.8
2015-May-24 06:24N 51°33' E 006°41'4 3.9
2015-May-24 05:25N 51°35' E 006°36'34 4.9
2015-May-23 22:33N 51°52' E 005°49'7 6.3
2015-May-23 21:25N 51°54' E 005°37'11 5.9
2015-May-23 19:32N 51°48' E 005°22'6 5.7
2015-May-23 18:33N 51°49' E 005°12'17 6.9
2015-May-23 16:09N 51°49' E 004°46'5 6.7
2015-May-23 15:25N 51°52' E 004°39'5 5.8
2015-May-23 14:33N 51°54' E 004°32'0 0.0
2015-May-23 13:32N 51°54' E 004°32'4 3.8
2015-May-23 12:33N 51°53' E 004°26'0 0.0
2015-May-23 07:15N 51°54' E 004°26'0 0.0
2015-May-23 06:32N 51°54' E 004°26'0 0.1
2015-May-23 03:33N 51°53' E 004°26'0 0.0
2015-May-23 02:29N 51°53' E 004°26'0 0.2
2015-May-23 01:33N 51°54' E 004°26'1 1.4
2015-May-23 00:33N 51°53' E 004°24'0 0.0
2015-May-22 23:33N 51°53' E 004°24'0 0.0
2015-May-22 22:33N 51°53' E 004°24'0 0.0
2015-May-22 21:33N 51°53' E 004°24'0 0.0
2015-May-22 20:33N 51°53' E 004°24'0 0.0
2015-May-22 19:33N 51°53' E 004°24'0 0.0
2015-May-22 18:33N 51°53' E 004°24'0 0.0
2015-May-22 17:33N 51°53' E 004°24'0 0.0
2015-May-22 16:33N 51°53' E 004°24'0 0.0
2015-May-22 15:33N 51°53' E 004°24'0 0.1
2015-May-22 14:33N 51°53' E 004°24'2 2.0
2015-May-22 13:33N 51°53' E 004°27'1 0.4
2015-May-22 11:33N 51°54' E 004°28'8 8.1
2015-May-22 10:33N 51°54' E 004°41'11 9.7
2015-May-22 09:28N 51°58' E 004°56'7 7.8
2015-May-22 08:33N 52°01' E 005°07'3 3.1
2015-May-22 07:33N 52°04' E 005°06'22 1.4
2015-May-21 15:34N 52°25' E 004°52'3 3.3
2015-May-21 14:33N 52°25' E 004°46'1 0.8
2015-May-21 13:34N 52°25' E 004°48'0 0.0
2015-May-21 12:34N 52°25' E 004°48'0 0.0
2015-May-21 11:33N 52°25' E 004°48'0 0.0
2015-May-21 10:34N 52°25' E 004°48'0 0.0
2015-May-21 09:33N 52°25' E 004°48'0 0.0
2015-May-21 08:33N 52°25' E 004°48'0 0.0
2015-May-21 07:33N 52°25' E 004°48'0 0.4
2015-May-21 06:33N 52°25' E 004°47'1 0.9
2015-May-21 05:33N 52°25' E 004°46'0 0.0
2015-May-21 04:33N 52°25' E 004°46'0 0.0
2015-May-21 03:33N 52°25' E 004°46'0 0.0
2015-May-21 02:33N 52°25' E 004°46'0 0.0
2015-May-21 01:33N 52°26' E 004°46'5 4.9
2015-May-21 00:34N 52°23' E 004°54'6 6.1
2015-May-20 23:33N 52°19' E 005°01'7 7.1
2015-May-20 22:33N 52°12' E 005°00'6 6.3
2015-May-20 21:33N 52°07' E 005°05'6 6.1
2015-May-20 20:33N 52°01' E 005°09'24 2.9
2015-May-20 12:29N 51°53' E 005°45'39 7.2
2015-May-20 07:04N 51°35' E 006°40'18 7.0
2015-May-20 04:30N 51°17' E 006°42'6 6.4
2015-May-20 03:33N 51°11' E 006°44'6 5.9
2015-May-20 02:34N 51°07' E 006°52'11 7.6
2015-May-20 01:07N 50°57' E 006°58'5 7.8
2015-May-20 00:25N 50°53' E 007°03'  
Track history (hours):
 
Tides and Currents Weather Stations Pressure Air Temp Water Temp Dewpoint Dewpoint Depression Visibility Wind Speed Wind Dir Waves Ship Positions

Empire

Last reported at 2015-May-29 13:33 UTC. Time now 2015-May-29 14:22 UTC.
Position N 51°53' E 004°24'.

Length 183 m; draft 3 m.

Type: Ship. MMSI: 244670090.

Date/timePositionNaut miles runAvg speedWind from/ knotsBaromVisibWave heightAir tempDewpointWater temp
2015-May-29 13:33N 51°53' E 004°24'0 0.0
2015-May-29 12:33N 51°53' E 004°24'0 0.5
2015-May-29 11:33N 51°53' E 004°24'7 7.1
2015-May-29 10:33N 51°56' E 004°13'6 6.1
2015-May-29 09:33N 51°58' E 004°04'1 0.9
2015-May-29 08:33N 51°58' E 004°03'0 0.0
2015-May-29 07:33N 51°58' E 004°03'1 0.5
2015-May-29 06:33N 51°59' E 004°02'1 1.0
2015-May-29 05:33N 51°58' E 004°03'2 1.6
2015-May-29 04:33N 51°57' E 004°02'1 1.0
2015-May-29 03:33N 51°57' E 004°04'0 0.0
2015-May-29 02:33N 51°57' E 004°04'0 0.0
2015-May-29 01:33N 51°57' E 004°04'0 0.0
2015-May-29 00:33N 51°57' E 004°04'0 0.0
2015-May-28 23:33N 51°57' E 004°04'1 1.1
2015-May-28 22:33N 51°57' E 004°02'0 0.0
2015-May-28 21:33N 51°57' E 004°02'0 0.4
2015-May-28 20:33N 51°57' E 004°03'0 0.0
2015-May-28 19:33N 51°57' E 004°03'0 0.0
2015-May-28 18:33N 51°57' E 004°03'0 0.0
2015-May-28 17:33N 51°57' E 004°03'0 0.0
2015-May-28 16:33N 51°57' E 004°03'1 1.1
2015-May-28 15:33N 51°57' E 004°05'0 0.0
2015-May-28 14:33N 51°57' E 004°05'3 3.4
2015-May-28 13:33N 51°56' E 004°09'8 7.6
2015-May-28 12:33N 51°52' E 004°20'8 8.1
2015-May-28 11:34N 51°50' E 004°33'4 4.2
2015-May-28 10:33N 51°48' E 004°39'7 6.9
2015-May-28 09:33N 51°49' E 004°50'1310.3
2015-May-28 08:16N 51°49' E 005°11'7 9.5
2015-May-28 07:33N 51°49' E 005°22'11 9.1
2015-May-28 06:21N 51°54' E 005°38'810.6
2015-May-28 05:33N 51°51' E 005°51'8 8.0
2015-May-28 04:31N 51°52' E 006°05'7 1.0
2015-May-27 21:30N 51°49' E 006°16'20 9.5
2015-May-27 19:21N 51°34' E 006°37'16 7.5
2015-May-27 17:16N 51°19' E 006°44'5 7.3
2015-May-27 16:33N 51°14' E 006°44'19 8.3
2015-May-27 14:18N 50°58' E 006°59'5 5.8
2015-May-27 13:31N 50°54' E 007°03'105 7.5
2015-May-26 23:33N 49°25' E 008°30'9 8.6
2015-May-26 22:34N 49°17' E 008°27'1010.4
2015-May-26 21:34N 49°07' E 008°22'4 4.4
2015-May-26 20:34N 49°03' E 008°18'0 0.0
2015-May-26 19:34N 49°03' E 008°18'0 0.0
2015-May-26 18:34N 49°03' E 008°18'0 0.0
2015-May-26 17:33N 49°03' E 008°18'2 2.4
2015-May-26 16:34N 49°01' E 008°18'1 0.8
2015-May-26 15:34N 49°01' E 008°19'1 1.2
2015-May-26 14:33N 49°02' E 008°18'2 1.6
2015-May-26 13:34N 49°03' E 008°18'0 0.0
2015-May-26 12:34N 49°03' E 008°18'0 0.0
2015-May-26 11:34N 49°03' E 008°18'0 0.0
2015-May-26 10:34N 49°03' E 008°18'0 0.1
2015-May-26 09:34N 49°03' E 008°18'0 0.0
2015-May-26 08:34N 49°03' E 008°18'2 2.1
2015-May-26 07:34N 49°05' E 008°20'4 4.4
2015-May-26 06:34N 49°09' E 008°22'5 5.2
2015-May-26 05:34N 49°14' E 008°23'5 5.4
2015-May-26 04:33N 49°18' E 008°29'4 4.4
2015-May-26 03:34N 49°22' E 008°30'6 4.7
2015-May-26 02:22N 49°27' E 008°27'18 2.2
2015-May-25 18:17N 49°45' E 008°28'85 3.8
2015-May-24 20:14N 50°49' E 007°02'2 3.2
2015-May-24 19:31N 50°51' E 006°60'3 2.8
2015-May-24 18:31N 50°54' E 007°01'4 4.1
2015-May-24 17:33N 50°57' E 006°58'9 4.0
2015-May-24 15:17N 51°05' E 006°51'3 3.6
2015-May-24 14:33N 51°08' E 006°51'2 2.4
2015-May-24 13:33N 51°09' E 006°48'4 3.8
2015-May-24 12:33N 51°12' E 006°44'3 3.0
2015-May-24 11:33N 51°15' E 006°46'4 3.7
2015-May-24 10:26N 51°19' E 006°44'4 4.6
2015-May-24 09:32N 51°22' E 006°39'12 3.8
2015-May-24 06:24N 51°33' E 006°41'4 3.9
2015-May-24 05:25N 51°35' E 006°36'34 4.9
2015-May-23 22:33N 51°52' E 005°49'7 6.3
2015-May-23 21:25N 51°54' E 005°37'11 5.9
2015-May-23 19:32N 51°48' E 005°22'6 5.7
2015-May-23 18:33N 51°49' E 005°12'17 6.9
2015-May-23 16:09N 51°49' E 004°46'5 6.7
2015-May-23 15:25N 51°52' E 004°39'5 5.8
2015-May-23 14:33N 51°54' E 004°32'0 0.0
2015-May-23 13:32N 51°54' E 004°32'4 3.8
2015-May-23 12:33N 51°53' E 004°26'0 0.0
2015-May-23 07:15N 51°54' E 004°26'0 0.0
2015-May-23 06:32N 51°54' E 004°26'0 0.1
2015-May-23 03:33N 51°53' E 004°26'0 0.0
2015-May-23 02:29N 51°53' E 004°26'0 0.2
2015-May-23 01:33N 51°54' E 004°26'1 1.4
2015-May-23 00:33N 51°53' E 004°24'0 0.0
2015-May-22 23:33N 51°53' E 004°24'0 0.0
2015-May-22 22:33N 51°53' E 004°24'0 0.0
2015-May-22 21:33N 51°53' E 004°24'0 0.0
2015-May-22 20:33N 51°53' E 004°24'0 0.0
2015-May-22 19:33N 51°53' E 004°24'0 0.0
2015-May-22 18:33N 51°53' E 004°24'0 0.0
2015-May-22 17:33N 51°53' E 004°24'0 0.0
2015-May-22 16:33N 51°53' E 004°24'0 0.0
2015-May-22 15:33N 51°53' E 004°24'0 0.1
2015-May-22 14:33N 51°53' E 004°24'2 2.0
2015-May-22 13:33N 51°53' E 004°27'1 0.4
2015-May-22 11:33N 51°54' E 004°28'8 8.1
2015-May-22 10:33N 51°54' E 004°41'11 9.7
2015-May-22 09:28N 51°58' E 004°56'7 7.8
2015-May-22 08:33N 52°01' E 005°07'3 3.1
2015-May-22 07:33N 52°04' E 005°06'22 1.4
2015-May-21 15:34N 52°25' E 004°52'3 3.3
2015-May-21 14:33N 52°25' E 004°46'1 0.8
2015-May-21 13:34N 52°25' E 004°48'0 0.0
2015-May-21 12:34N 52°25' E 004°48'0 0.0
2015-May-21 11:33N 52°25' E 004°48'0 0.0
2015-May-21 10:34N 52°25' E 004°48'0 0.0
2015-May-21 09:33N 52°25' E 004°48'0 0.0
2015-May-21 08:33N 52°25' E 004°48'0 0.0
2015-May-21 07:33N 52°25' E 004°48'0 0.4
2015-May-21 06:33N 52°25' E 004°47'1 0.9
2015-May-21 05:33N 52°25' E 004°46'0 0.0
2015-May-21 04:33N 52°25' E 004°46'0 0.0
2015-May-21 03:33N 52°25' E 004°46'0 0.0
2015-May-21 02:33N 52°25' E 004°46'0 0.0
2015-May-21 01:33N 52°26' E 004°46'5 4.9
2015-May-21 00:34N 52°23' E 004°54'6 6.1
2015-May-20 23:33N 52°19' E 005°01'7 7.1
2015-May-20 22:33N 52°12' E 005°00'6 6.3
2015-May-20 21:33N 52°07' E 005°05'6 6.1
2015-May-20 20:33N 52°01' E 005°09'24 2.9
2015-May-20 12:29N 51°53' E 005°45'39 7.2
2015-May-20 07:04N 51°35' E 006°40'18 7.0
2015-May-20 04:30N 51°17' E 006°42'6 6.4
2015-May-20 03:33N 51°11' E 006°44'6 5.9
2015-May-20 02:34N 51°07' E 006°52'11 7.6
2015-May-20 01:07N 50°57' E 006°58'5 7.8
2015-May-20 00:25N 50°53' E 007°03'  

Dump ship's entire track history